createdAt,value
2022-12-20T01:50:37.116Z,69.36
2022-12-20T01:53:23.172Z,69.17
2022-12-20T01:56:00.210Z,68.28
2022-12-20T01:57:12.629Z,67.85
2022-12-20T01:58:23.023Z,67.15
2022-12-20T01:59:36.036Z,67.54
2022-12-20T02:02:04.892Z,67.23
2022-12-20T02:03:14.999Z,66.61
2022-12-20T02:04:24.697Z,66.44
2022-12-20T02:05:36.909Z,66.91
2022-12-20T02:06:45.644Z,66.65
2022-12-20T02:07:56.841Z,66.40
2022-12-20T02:09:09.465Z,64.77
2022-12-20T02:10:20.487Z,64.16
2022-12-20T02:11:35.945Z,64.66
2022-12-20T02:12:47.094Z,64.90
2022-12-20T02:17:18.574Z,64.31
2022-12-20T02:18:38.053Z,64.94
2022-12-20T02:19:57.656Z,65.12
2022-12-20T02:23:33.140Z,64.28
2022-12-20T02:26:33.805Z,64.22
2022-12-20T02:29:37.487Z,63.38
2022-12-20T02:30:49.063Z,63.20
2022-12-20T02:32:26.881Z,63.79
2022-12-20T02:33:36.164Z,63.48
2022-12-20T02:34:46.384Z,63.98
2022-12-20T02:35:56.520Z,63.61
2022-12-20T02:37:06.791Z,63.48
2022-12-20T02:38:32.327Z,63.89
2022-12-20T02:39:44.582Z,63.12
2022-12-20T02:41:10.221Z,62.42
2022-12-20T02:42:22.828Z,62.96
2022-12-20T02:43:52.240Z,63.47
2022-12-20T02:45:19.198Z,63.26
2022-12-20T02:47:50.781Z,62.82
2022-12-20T02:49:04.018Z,62.86
2022-12-20T02:50:17.676Z,62.61
2022-12-20T02:51:30.377Z,62.62
2022-12-20T02:52:42.656Z,62.28
2022-12-20T02:53:52.324Z,62.30
2022-12-20T02:55:04.953Z,62.22
2022-12-20T02:56:28.999Z,62.42
2022-12-20T02:57:50.335Z,61.61
2022-12-20T03:00:22.768Z,61.84
2022-12-20T03:01:36.051Z,61.84
2022-12-20T03:04:30.740Z,61.33
2022-12-20T03:05:46.187Z,61.18
2022-12-20T03:07:05.690Z,61.25
2022-12-20T03:08:15.312Z,61.46
2022-12-20T03:09:24.731Z,61.90
2022-12-20T03:10:35.017Z,61.23
2022-12-20T03:11:43.975Z,61.48
2022-12-20T03:12:52.882Z,61.47
2022-12-20T03:14:03.160Z,61.09
2022-12-20T03:15:12.812Z,61.97
2022-12-20T03:16:23.436Z,61.89
2022-12-20T03:17:32.050Z,61.99
2022-12-20T03:18:41.883Z,61.79
2022-12-20T03:19:51.456Z,61.79
2022-12-20T03:21:00.936Z,61.99
2022-12-20T03:22:16.249Z,61.91
2022-12-20T03:23:24.928Z,61.96
2022-12-20T03:24:34.274Z,60.84
2022-12-20T03:25:44.811Z,61.38
2022-12-20T03:26:57.114Z,61.16
2022-12-20T03:28:06.753Z,61.26
2022-12-20T03:29:16.599Z,61.58
2022-12-20T03:30:25.890Z,61.48
2022-12-20T03:31:35.813Z,61.41
2022-12-20T03:32:44.993Z,61.53
2022-12-20T03:33:55.738Z,61.50
2022-12-20T03:35:06.044Z,61.25
2022-12-20T03:36:17.297Z,61.43
2022-12-20T03:37:26.984Z,61.43
2022-12-20T03:38:36.364Z,61.58
2022-12-20T03:39:46.547Z,61.40
2022-12-20T03:40:56.830Z,61.15
2022-12-20T03:42:06.747Z,60.96
2022-12-20T03:43:17.697Z,61.17
2022-12-20T03:44:27.819Z,61.16
2022-12-20T03:45:37.129Z,61.18
2022-12-20T03:46:47.395Z,60.96
2022-12-20T03:49:12.490Z,61.00
2022-12-20T03:50:23.481Z,61.15
2022-12-20T03:51:32.757Z,61.21
2022-12-20T03:52:43.727Z,61.38
2022-12-20T03:53:55.418Z,61.42
2022-12-20T03:55:09.840Z,61.08
2022-12-20T03:56:24.540Z,60.89
2022-12-20T03:57:33.117Z,60.94
2022-12-20T03:58:43.476Z,60.71
2022-12-20T03:59:54.278Z,60.78
2022-12-20T04:01:18.871Z,60.82
2022-12-20T04:02:29.605Z,60.82
2022-12-20T04:03:39.852Z,60.83
2022-12-20T04:04:52.893Z,60.55
2022-12-20T04:06:03.766Z,60.73
2022-12-20T04:07:13.495Z,60.69
2022-12-20T04:08:24.066Z,60.50
2022-12-20T04:09:34.363Z,60.19
2022-12-20T04:12:18.385Z,60.18
2022-12-20T04:13:27.282Z,59.18
2022-12-20T04:14:37.058Z,59.14
2022-12-20T04:15:46.539Z,59.73
2022-12-20T04:16:56.882Z,59.70
2022-12-20T04:18:06.645Z,59.72
2022-12-20T04:19:16.168Z,59.11
2022-12-20T04:20:28.126Z,59.60
2022-12-20T04:21:40.409Z,59.43
2022-12-20T04:22:51.171Z,59.25
2022-12-20T04:24:01.031Z,59.00
2022-12-20T04:25:11.481Z,58.91
2022-12-20T04:26:22.727Z,58.77
2022-12-20T04:27:31.823Z,58.71
2022-12-20T04:28:43.284Z,58.52
2022-12-20T04:29:57.993Z,58.37
2022-12-20T04:31:08.971Z,58.39
2022-12-20T04:32:18.543Z,58.06
2022-12-20T04:33:28.033Z,58.06
2022-12-20T04:34:39.117Z,58.12
2022-12-20T04:35:48.799Z,57.97
2022-12-20T04:36:58.029Z,57.98
2022-12-20T04:38:09.136Z,57.42
2022-12-20T04:39:19.716Z,56.37
2022-12-20T04:40:30.246Z,55.88
2022-12-20T04:41:41.113Z,56.75
2022-12-20T04:42:52.585Z,56.06
2022-12-20T04:44:02.629Z,56.06
2022-12-20T04:45:13.520Z,56.46
2022-12-20T04:46:25.888Z,55.70
2022-12-20T04:47:36.029Z,56.23
2022-12-20T04:49:00.547Z,55.42
2022-12-20T04:49:55.518Z,55.54
2022-12-20T04:51:05.636Z,55.44
2022-12-20T04:52:32.600Z,55.95
2022-12-20T04:53:47.528Z,55.70
2022-12-20T04:54:58.051Z,54.95
2022-12-20T04:56:09.761Z,54.87
2022-12-20T04:57:18.727Z,54.93
2022-12-20T04:58:30.456Z,54.95
2022-12-20T04:59:41.936Z,54.29
2022-12-20T05:00:53.301Z,54.45
2022-12-20T05:03:27.398Z,54.30
2022-12-20T05:05:53.302Z,54.49
2022-12-20T05:07:02.612Z,54.42
2022-12-20T05:08:12.726Z,53.89
2022-12-20T05:09:21.472Z,53.63
2022-12-20T05:10:32.883Z,54.19
2022-12-20T05:11:43.744Z,54.60
2022-12-20T05:12:53.414Z,54.76
2022-12-20T05:14:07.297Z,54.10
2022-12-20T05:15:17.465Z,54.67
2022-12-20T05:16:29.000Z,54.57
2022-12-20T05:17:37.904Z,54.74
2022-12-20T05:18:49.571Z,54.92
2022-12-20T05:19:59.054Z,54.77
2022-12-20T05:21:26.082Z,54.79
2022-12-20T05:22:53.779Z,54.55
2022-12-20T05:24:22.738Z,54.37
2022-12-20T05:27:07.960Z,54.37
2022-12-20T05:28:17.519Z,54.31
2022-12-20T05:29:28.293Z,54.24
2022-12-20T05:30:39.668Z,53.65
2022-12-20T05:31:49.453Z,53.78
2022-12-20T05:32:59.747Z,53.76
2022-12-20T05:34:10.397Z,53.59
2022-12-20T05:35:21.149Z,53.43
2022-12-20T05:36:31.753Z,53.35
2022-12-20T05:37:41.168Z,53.37
2022-12-20T05:38:51.795Z,53.67
2022-12-20T05:40:01.671Z,53.28
2022-12-20T05:41:14.943Z,53.50
2022-12-20T05:43:42.095Z,53.76
2022-12-20T05:44:52.465Z,53.71
2022-12-20T05:46:03.312Z,53.35
2022-12-20T05:48:30.097Z,53.12
2022-12-20T05:49:38.810Z,52.87
2022-12-20T05:50:50.222Z,52.62
2022-12-20T05:53:26.070Z,52.57
2022-12-20T11:01:52.304Z,44.07
2022-12-20T11:03:16.402Z,43.77
2022-12-20T11:04:29.954Z,42.58
2022-12-20T11:05:39.470Z,42.12
2022-12-20T11:06:48.956Z,42.40
2022-12-20T11:10:43.953Z,42.09
2022-12-20T11:12:07.225Z,42.20
2022-12-20T11:14:45.627Z,41.87
2022-12-20T11:19:11.522Z,41.88
2022-12-20T11:20:39.911Z,41.45
2022-12-20T11:22:01.733Z,41.66
2022-12-20T11:26:53.563Z,41.05
2022-12-20T11:28:17.891Z,40.82
2022-12-20T11:29:34.764Z,41.09
2022-12-20T11:30:52.283Z,40.32
2022-12-20T11:33:32.833Z,41.08
2022-12-20T11:34:56.373Z,41.09
2022-12-20T11:39:16.210Z,40.66
2022-12-20T11:40:34.631Z,40.90
2022-12-20T11:42:10.677Z,40.49
2022-12-20T11:44:23.507Z,40.88
2022-12-20T11:47:05.260Z,41.22
2022-12-20T11:50:05.224Z,40.65
2022-12-20T11:51:27.733Z,40.83
2022-12-20T11:52:50.263Z,40.65
2022-12-20T11:55:36.351Z,40.66
2022-12-20T11:56:49.011Z,40.96
2022-12-20T11:58:20.546Z,41.33
2022-12-20T11:59:22.369Z,40.94
2022-12-20T12:00:35.129Z,41.28
2022-12-20T12:01:48.980Z,41.24
2022-12-20T12:03:02.847Z,40.90
2022-12-20T12:10:07.642Z,41.22
2022-12-20T12:12:49.157Z,41.31
2022-12-20T12:14:01.210Z,41.02
2022-12-20T12:15:38.532Z,41.19
2022-12-20T12:16:52.097Z,41.17
2022-12-20T12:18:05.389Z,41.27
2022-12-20T12:19:15.415Z,41.79
2022-12-20T12:22:09.334Z,42.22
2022-12-20T12:24:48.515Z,41.17
2022-12-20T12:26:01.552Z,41.71
2022-12-20T12:28:34.111Z,41.95
2022-12-20T12:29:43.257Z,42.33
2022-12-20T12:30:59.821Z,42.59
2022-12-20T12:35:04.536Z,42.35
2022-12-20T12:37:38.932Z,41.76
2022-12-20T12:39:01.708Z,41.91
2022-12-20T12:40:21.866Z,42.42
2022-12-20T12:41:52.422Z,42.18
2022-12-20T12:44:57.657Z,42.68
2022-12-20T12:47:40.576Z,42.34
2022-12-20T12:48:59.443Z,42.49
2022-12-20T12:50:12.204Z,42.08
2022-12-20T12:51:24.907Z,42.17
2022-12-20T12:52:45.683Z,42.37
2022-12-20T12:54:16.230Z,42.39
2022-12-20T12:55:46.175Z,42.61
2022-12-20T12:58:28.767Z,42.72
2022-12-20T13:01:12.791Z,42.41
2022-12-20T13:03:56.441Z,42.14
2022-12-20T13:05:12.801Z,42.60
2022-12-20T13:06:29.678Z,42.53
2022-12-20T13:07:43.058Z,43.01
2022-12-20T13:09:08.900Z,42.59
2022-12-20T13:11:46.558Z,42.87
2022-12-20T13:12:59.888Z,42.64
2022-12-20T13:14:25.083Z,42.75
2022-12-20T13:17:15.241Z,43.40
2022-12-20T13:18:17.161Z,43.34
2022-12-20T13:19:30.641Z,43.40
2022-12-20T13:20:40.994Z,43.23
2022-12-20T13:23:17.743Z,43.58
2022-12-20T13:24:43.984Z,43.80
2022-12-20T13:25:53.763Z,43.75
2022-12-20T13:27:05.160Z,43.59
2022-12-20T13:28:26.838Z,43.49
2022-12-20T13:29:37.260Z,43.58
2022-12-20T13:30:48.632Z,43.69
2022-12-20T13:31:57.577Z,43.68
2022-12-20T13:33:43.569Z,43.95
2022-12-20T13:34:56.583Z,43.81
2022-12-20T13:36:12.666Z,44.18
2022-12-20T13:39:26.456Z,44.71
2022-12-20T13:40:45.195Z,44.68
2022-12-20T13:42:16.657Z,44.67
2022-12-20T13:44:48.971Z,44.95
2022-12-20T13:47:37.797Z,45.06
2022-12-20T13:48:47.985Z,45.10
2022-12-20T13:50:02.603Z,45.22
2022-12-20T13:51:18.674Z,45.36
2022-12-20T13:52:30.978Z,45.57
2022-12-20T13:55:02.158Z,45.97
2022-12-20T13:57:45.996Z,46.26
2022-12-20T13:58:59.354Z,46.20
2022-12-20T14:00:17.483Z,46.20
2022-12-20T14:01:30.499Z,46.10
2022-12-20T14:02:43.675Z,45.99
2022-12-20T14:05:22.047Z,45.66
2022-12-20T14:06:31.760Z,45.56
2022-12-20T14:07:42.330Z,45.79
2022-12-20T14:08:52.754Z,45.90
2022-12-20T14:10:04.079Z,46.37
2022-12-20T14:12:46.521Z,45.87
2022-12-20T14:14:03.969Z,45.99
2022-12-20T14:16:50.175Z,46.15
2022-12-20T14:19:32.148Z,46.08
2022-12-20T14:20:41.731Z,46.28
2022-12-20T14:21:51.757Z,46.21
2022-12-20T14:24:35.113Z,45.91
2022-12-20T18:48:46.549Z,65.06
2022-12-20T18:51:13.791Z,64.73
2022-12-20T18:52:23.944Z,64.34
2022-12-20T18:53:34.963Z,63.91
2022-12-20T18:54:43.509Z,63.87
2022-12-20T18:55:52.132Z,63.94
2022-12-20T18:58:38.897Z,63.10
2022-12-20T18:59:47.797Z,63.30
2022-12-20T19:00:58.886Z,63.02
2022-12-20T19:02:12.102Z,63.03
2022-12-20T19:03:21.051Z,62.97
2022-12-20T19:04:30.032Z,62.98
2022-12-20T19:05:39.238Z,62.84
2022-12-20T19:06:47.850Z,62.80
2022-12-20T19:09:13.561Z,62.87
2022-12-20T19:10:21.971Z,62.55
2022-12-20T19:11:33.074Z,62.83
2022-12-20T19:12:41.746Z,63.17
2022-12-20T19:13:51.866Z,63.03
2022-12-20T19:15:00.521Z,62.98
2022-12-20T19:16:16.561Z,62.81
2022-12-20T19:17:35.134Z,62.92
2022-12-20T19:18:45.888Z,62.84
2022-12-20T19:19:54.394Z,63.08
2022-12-20T19:21:08.742Z,63.06
2022-12-20T19:22:17.359Z,62.22
2022-12-20T19:23:26.370Z,62.27
2022-12-20T19:24:35.881Z,62.31
2022-12-20T19:25:44.614Z,62.55
2022-12-20T19:26:53.641Z,62.46
2022-12-20T19:29:19.908Z,61.97
2022-12-20T19:30:29.504Z,62.04
2022-12-20T19:31:38.896Z,62.05
2022-12-20T19:32:49.081Z,61.80
2022-12-20T19:34:01.083Z,61.96
2022-12-20T19:35:45.033Z,62.11
2022-12-20T19:36:27.901Z,62.75
2022-12-20T19:37:37.670Z,62.44
2022-12-20T19:38:52.343Z,62.32
2022-12-20T19:40:01.816Z,62.39
2022-12-20T19:41:11.365Z,62.44
2022-12-20T19:42:24.930Z,62.49
2022-12-20T19:43:37.028Z,62.45
2022-12-20T19:44:46.639Z,62.48
2022-12-20T19:45:59.010Z,62.44
2022-12-20T19:47:08.387Z,61.84
2022-12-20T19:48:17.150Z,62.09
2022-12-20T19:49:25.720Z,62.25
2022-12-20T19:50:34.678Z,61.85
2022-12-20T19:51:43.348Z,61.61
2022-12-20T19:54:10.861Z,61.87
2022-12-20T19:55:19.385Z,61.74
2022-12-20T19:56:31.666Z,61.66
2022-12-20T19:57:40.512Z,61.68
2022-12-20T19:58:49.997Z,61.42
2022-12-20T19:59:59.070Z,61.10
2022-12-20T20:02:25.243Z,61.12
2022-12-20T20:03:36.155Z,60.86
2022-12-20T20:04:45.033Z,61.04
2022-12-20T20:05:55.839Z,60.80
2022-12-20T20:07:04.930Z,61.15
2022-12-20T20:08:14.876Z,61.15
2022-12-20T20:09:23.901Z,61.34
2022-12-20T20:10:32.768Z,61.24
2022-12-20T20:11:41.742Z,61.06
2022-12-20T20:12:52.332Z,61.14
2022-12-20T20:14:03.002Z,61.51
2022-12-20T20:15:11.780Z,61.36
2022-12-20T20:16:22.730Z,61.31
2022-12-20T20:17:32.691Z,61.39
2022-12-20T20:18:41.423Z,61.35
2022-12-20T20:19:51.360Z,61.04
2022-12-20T20:22:23.053Z,61.24
2022-12-20T20:23:30.007Z,61.81
2022-12-20T20:24:38.899Z,61.61
2022-12-20T20:25:54.235Z,61.75
2022-12-20T20:28:18.326Z,61.65
2022-12-20T20:29:27.387Z,61.71
2022-12-20T20:31:57.714Z,61.43
2022-12-20T20:33:07.103Z,61.28
2022-12-20T20:34:15.846Z,61.29
2022-12-20T20:35:25.426Z,61.59
2022-12-20T20:37:49.122Z,61.64
2022-12-20T20:38:58.802Z,61.43
2022-12-20T20:40:08.824Z,61.79
2022-12-20T20:41:18.398Z,61.55
2022-12-20T20:42:27.980Z,61.44
2022-12-20T20:43:38.478Z,61.54
2022-12-20T20:44:47.021Z,61.74
2022-12-20T20:45:57.240Z,61.83
2022-12-20T20:48:21.990Z,61.54
2022-12-20T20:49:31.583Z,61.00
2022-12-20T20:50:40.938Z,61.37
2022-12-20T20:51:52.005Z,61.42
2022-12-20T20:53:00.561Z,61.32
2022-12-20T20:54:10.023Z,61.48
2022-12-20T20:55:18.643Z,61.43
2022-12-20T20:56:27.693Z,61.31
2022-12-20T20:57:36.968Z,61.22
2022-12-20T20:58:46.311Z,61.20
2022-12-20T20:59:54.973Z,61.36
2022-12-20T21:01:06.926Z,61.47
2022-12-20T21:02:15.597Z,61.23
2022-12-20T21:03:26.026Z,61.56
2022-12-20T21:04:34.793Z,61.33
2022-12-20T21:06:32.385Z,61.02
2022-12-20T21:06:57.283Z,61.29
2022-12-20T21:08:06.959Z,61.56
2022-12-20T21:09:16.185Z,61.79
2022-12-20T21:10:24.970Z,61.85
2022-12-20T21:12:51.880Z,62.57
2022-12-20T21:14:00.404Z,62.48
2022-12-20T21:15:26.355Z,62.26
2022-12-20T21:16:23.042Z,62.14
2022-12-20T21:17:32.148Z,61.98
2022-12-20T21:18:42.050Z,61.96
2022-12-20T21:19:50.583Z,62.15
2022-12-20T21:22:14.248Z,61.86
2022-12-20T21:23:23.020Z,61.87
2022-12-20T21:24:31.636Z,61.96
2022-12-20T21:25:40.699Z,61.83
2022-12-20T21:26:51.797Z,61.55
2022-12-20T21:28:00.262Z,61.20
2022-12-20T21:29:10.061Z,61.54
2022-12-20T21:30:19.198Z,61.35
2022-12-20T21:31:28.039Z,61.15
2022-12-20T21:32:40.990Z,60.86
2022-12-20T21:33:49.529Z,61.04
2022-12-20T21:34:59.087Z,60.82
2022-12-20T21:37:30.567Z,60.79
2022-12-20T21:38:40.156Z,61.01
2022-12-20T21:39:49.858Z,61.22
2022-12-20T21:41:04.528Z,60.79
2022-12-20T21:42:13.188Z,61.15
2022-12-20T21:44:36.811Z,60.95
2022-12-20T21:45:49.489Z,60.92
2022-12-20T21:46:58.337Z,61.25
2022-12-20T21:48:08.153Z,60.58
2022-12-20T21:49:17.122Z,60.51
